sensor_id;sensor_type;location;lat;lon;timestamp;P1;durP1;ratioP1;P2;durP2;ratioP2
29344;SDS011;16339;48.748;2.222;2022-07-29T00:01:16;8.68;;;2.35;;
29344;SDS011;16339;48.748;2.222;2022-07-29T00:03:45;4.78;;;2.67;;
29344;SDS011;16339;48.748;2.222;2022-07-29T00:06:14;6.05;;;2.38;;
29344;SDS011;16339;48.748;2.222;2022-07-29T00:08:43;6.68;;;2.25;;
29344;SDS011;16339;48.748;2.222;2022-07-29T00:11:12;8.02;;;2.17;;
29344;SDS011;16339;48.748;2.222;2022-07-29T00:13:43;4.63;;;2.40;;
29344;SDS011;16339;48.748;2.222;2022-07-29T00:16:12;7.50;;;2.50;;
29344;SDS011;16339;48.748;2.222;2022-07-29T00:18:41;5.32;;;2.25;;
29344;SDS011;16339;48.748;2.222;2022-07-29T00:21:10;3.80;;;2.35;;
29344;SDS011;16339;48.748;2.222;2022-07-29T00:23:45;4.78;;;2.40;;
29344;SDS011;16339;48.748;2.222;2022-07-29T00:26:17;4.78;;;2.38;;
29344;SDS011;16339;48.748;2.222;2022-07-29T00:28:48;7.35;;;2.92;;
29344;SDS011;16339;48.748;2.222;2022-07-29T00:33:46;7.88;;;2.53;;
29344;SDS011;16339;48.748;2.222;2022-07-29T00:36:14;7.32;;;2.97;;
29344;SDS011;16339;48.748;2.222;2022-07-29T00:38:40;7.57;;;2.53;;
29344;SDS011;16339;48.748;2.222;2022-07-29T00:41:11;5.47;;;2.60;;
29344;SDS011;16339;48.748;2.222;2022-07-29T00:43:40;5.70;;;2.58;;
29344;SDS011;16339;48.748;2.222;2022-07-29T00:46:15;6.03;;;2.67;;
29344;SDS011;16339;48.748;2.222;2022-07-29T00:48:43;5.72;;;2.95;;
29344;SDS011;16339;48.748;2.222;2022-07-29T00:51:12;5.65;;;2.28;;
29344;SDS011;16339;48.748;2.222;2022-07-29T00:53:45;5.88;;;2.40;;
29344;SDS011;16339;48.748;2.222;2022-07-29T00:56:16;4.78;;;2.63;;
29344;SDS011;16339;48.748;2.222;2022-07-29T00:58:44;5.70;;;2.53;;
29344;SDS011;16339;48.748;2.222;2022-07-29T01:01:17;4.20;;;2.60;;
29344;SDS011;16339;48.748;2.222;2022-07-29T01:06:14;5.43;;;2.15;;
29344;SDS011;16339;48.748;2.222;2022-07-29T01:08:44;8.13;;;2.80;;
29344;SDS011;16339;48.748;2.222;2022-07-29T01:11:14;4.28;;;2.60;;
29344;SDS011;16339;48.748;2.222;2022-07-29T01:13:43;6.00;;;2.40;;
29344;SDS011;16339;48.748;2.222;2022-07-29T01:16:17;6.85;;;2.58;;
29344;SDS011;16339;48.748;2.222;2022-07-29T01:18:53;10.20;;;2.28;;
29344;SDS011;16339;48.748;2.222;2022-07-29T01:24:39;4.53;;;2.38;;
29344;SDS011;16339;48.748;2.222;2022-07-29T01:27:23;6.53;;;2.42;;
29344;SDS011;16339;48.748;2.222;2022-07-29T01:30:10;3.55;;;2.33;;
29344;SDS011;16339;48.748;2.222;2022-07-29T01:32:40;8.07;;;2.67;;
29344;SDS011;16339;48.748;2.222;2022-07-29T01:35:13;7.50;;;2.67;;
29344;SDS011;16339;48.748;2.222;2022-07-29T01:37:48;3.85;;;2.47;;
29344;SDS011;16339;48.748;2.222;2022-07-29T01:40:24;5.13;;;2.85;;
29344;SDS011;16339;48.748;2.222;2022-07-29T01:42:57;4.40;;;2.58;;
29344;SDS011;16339;48.748;2.222;2022-07-29T01:45:31;5.68;;;2.50;;
29344;SDS011;16339;48.748;2.222;2022-07-29T01:48:06;4.63;;;2.28;;
29344;SDS011;16339;48.748;2.222;2022-07-29T01:50:44;5.40;;;2.38;;
29344;SDS011;16339;48.748;2.222;2022-07-29T01:53:18;4.55;;;2.38;;
29344;SDS011;16339;48.748;2.222;2022-07-29T01:55:53;4.82;;;2.40;;
29344;SDS011;16339;48.748;2.222;2022-07-29T01:58:25;5.47;;;2.28;;
29344;SDS011;16339;48.748;2.222;2022-07-29T02:00:58;4.35;;;2.22;;
29344;SDS011;16339;48.748;2.222;2022-07-29T02:03:29;6.22;;;2.88;;
29344;SDS011;16339;48.748;2.222;2022-07-29T02:06:01;4.75;;;2.85;;
29344;SDS011;16339;48.748;2.222;2022-07-29T02:08:32;8.27;;;3.10;;
29344;SDS011;16339;48.748;2.222;2022-07-29T02:11:02;5.85;;;2.75;;
29344;SDS011;16339;48.748;2.222;2022-07-29T02:13:32;6.30;;;2.63;;
29344;SDS011;16339;48.748;2.222;2022-07-29T02:16:06;5.43;;;2.60;;
29344;SDS011;16339;48.748;2.222;2022-07-29T02:18:37;5.10;;;2.70;;
29344;SDS011;16339;48.748;2.222;2022-07-29T02:21:11;6.22;;;2.70;;
29344;SDS011;16339;48.748;2.222;2022-07-29T02:23:43;6.32;;;2.58;;
29344;SDS011;16339;48.748;2.222;2022-07-29T02:26:14;9.25;;;3.00;;
29344;SDS011;16339;48.748;2.222;2022-07-29T02:28:44;5.60;;;2.70;;
29344;SDS011;16339;48.748;2.222;2022-07-29T02:31:18;6.28;;;2.70;;
29344;SDS011;16339;48.748;2.222;2022-07-29T02:33:49;12.82;;;3.25;;
29344;SDS011;16339;48.748;2.222;2022-07-29T02:36:21;6.05;;;2.97;;
29344;SDS011;16339;48.748;2.222;2022-07-29T02:38:51;4.90;;;2.70;;
29344;SDS011;16339;48.748;2.222;2022-07-29T02:41:26;8.68;;;3.25;;
29344;SDS011;16339;48.748;2.222;2022-07-29T02:43:58;7.07;;;2.38;;
29344;SDS011;16339;48.748;2.222;2022-07-29T02:46:35;5.25;;;2.95;;
29344;SDS011;16339;48.748;2.222;2022-07-29T02:49:07;6.88;;;2.72;;
29344;SDS011;16339;48.748;2.222;2022-07-29T02:51:43;4.53;;;2.33;;
29344;SDS011;16339;48.748;2.222;2022-07-29T02:54:17;7.95;;;3.20;;
29344;SDS011;16339;48.748;2.222;2022-07-29T02:56:50;5.47;;;2.70;;
29344;SDS011;16339;48.748;2.222;2022-07-29T03:01:58;9.63;;;2.90;;
29344;SDS011;16339;48.748;2.222;2022-07-29T03:04:28;5.85;;;2.58;;
29344;SDS011;16339;48.748;2.222;2022-07-29T03:07:00;5.80;;;2.50;;
29344;SDS011;16339;48.748;2.222;2022-07-29T03:09:29;5.15;;;3.00;;
29344;SDS011;16339;48.748;2.222;2022-07-29T03:11:59;7.65;;;2.67;;
29344;SDS011;16339;48.748;2.222;2022-07-29T03:14:29;4.75;;;2.92;;
29344;SDS011;16339;48.748;2.222;2022-07-29T03:17:01;5.15;;;2.60;;
29344;SDS011;16339;48.748;2.222;2022-07-29T03:19:31;6.18;;;2.78;;
29344;SDS011;16339;48.748;2.222;2022-07-29T03:22:00;6.78;;;3.10;;
29344;SDS011;16339;48.748;2.222;2022-07-29T03:24:30;4.53;;;2.53;;
29344;SDS011;16339;48.748;2.222;2022-07-29T03:27:00;5.95;;;3.08;;
29344;SDS011;16339;48.748;2.222;2022-07-29T03:29:29;3.67;;;2.78;;
29344;SDS011;16339;48.748;2.222;2022-07-29T03:31:57;12.05;;;3.30;;
29344;SDS011;16339;48.748;2.222;2022-07-29T03:34:30;6.35;;;3.10;;
29344;SDS011;16339;48.748;2.222;2022-07-29T03:39:27;9.07;;;3.38;;
29344;SDS011;16339;48.748;2.222;2022-07-29T03:42:01;8.18;;;3.50;;
29344;SDS011;16339;48.748;2.222;2022-07-29T03:44:32;5.47;;;3.30;;
29344;SDS011;16339;48.748;2.222;2022-07-29T03:47:02;6.88;;;3.03;;
29344;SDS011;16339;48.748;2.222;2022-07-29T03:49:37;5.40;;;2.90;;
29344;SDS011;16339;48.748;2.222;2022-07-29T03:52:07;14.40;;;3.65;;
29344;SDS011;16339;48.748;2.222;2022-07-29T03:54:37;7.70;;;2.95;;
29344;SDS011;16339;48.748;2.222;2022-07-29T03:57:06;12.30;;;3.10;;
29344;SDS011;16339;48.748;2.222;2022-07-29T03:59:38;7.50;;;3.10;;
29344;SDS011;16339;48.748;2.222;2022-07-29T04:02:08;7.25;;;2.90;;
29344;SDS011;16339;48.748;2.222;2022-07-29T04:04:41;4.53;;;3.08;;
29344;SDS011;16339;48.748;2.222;2022-07-29T04:07:11;5.65;;;2.83;;
29344;SDS011;16339;48.748;2.222;2022-07-29T04:09:40;3.92;;;2.72;;
29344;SDS011;16339;48.748;2.222;2022-07-29T04:12:10;5.32;;;3.22;;
29344;SDS011;16339;48.748;2.222;2022-07-29T04:14:42;5.75;;;2.90;;
29344;SDS011;16339;48.748;2.222;2022-07-29T04:17:11;8.30;;;3.33;;
29344;SDS011;16339;48.748;2.222;2022-07-29T04:19:42;6.57;;;2.85;;
29344;SDS011;16339;48.748;2.222;2022-07-29T04:22:11;9.30;;;3.25;;
29344;SDS011;16339;48.748;2.222;2022-07-29T04:24:43;6.10;;;3.22;;
29344;SDS011;16339;48.748;2.222;2022-07-29T04:27:12;11.48;;;3.20;;
29344;SDS011;16339;48.748;2.222;2022-07-29T04:29:40;5.80;;;3.20;;
29344;SDS011;16339;48.748;2.222;2022-07-29T04:32:09;4.80;;;3.03;;
29344;SDS011;16339;48.748;2.222;2022-07-29T04:34:38;7.25;;;3.40;;
29344;SDS011;16339;48.748;2.222;2022-07-29T04:37:09;7.28;;;2.97;;
29344;SDS011;16339;48.748;2.222;2022-07-29T04:39:41;7.32;;;3.45;;
29344;SDS011;16339;48.748;2.222;2022-07-29T04:42:10;6.22;;;2.97;;
29344;SDS011;16339;48.748;2.222;2022-07-29T04:44:38;12.73;;;3.42;;
29344;SDS011;16339;48.748;2.222;2022-07-29T04:47:07;9.30;;;3.17;;
29344;SDS011;16339;48.748;2.222;2022-07-29T04:49:37;17.08;;;3.58;;
29344;SDS011;16339;48.748;2.222;2022-07-29T04:52:08;7.40;;;3.05;;
29344;SDS011;16339;48.748;2.222;2022-07-29T04:54:37;10.15;;;3.45;;
29344;SDS011;16339;48.748;2.222;2022-07-29T04:57:06;12.55;;;3.00;;
29344;SDS011;16339;48.748;2.222;2022-07-29T04:59:34;5.78;;;3.30;;
29344;SDS011;16339;48.748;2.222;2022-07-29T05:02:03;13.90;;;3.38;;
29344;SDS011;16339;48.748;2.222;2022-07-29T05:04:32;9.98;;;3.20;;
29344;SDS011;16339;48.748;2.222;2022-07-29T05:07:01;11.55;;;3.45;;
29344;SDS011;16339;48.748;2.222;2022-07-29T05:09:32;16.80;;;3.35;;
29344;SDS011;16339;48.748;2.222;2022-07-29T05:14:29;11.95;;;3.03;;
29344;SDS011;16339;48.748;2.222;2022-07-29T05:16:58;9.63;;;3.30;;
29344;SDS011;16339;48.748;2.222;2022-07-29T05:19:27;10.35;;;3.00;;
29344;SDS011;16339;48.748;2.222;2022-07-29T05:21:56;7.60;;;3.03;;
29344;SDS011;16339;48.748;2.222;2022-07-29T05:24:25;7.20;;;2.92;;
29344;SDS011;16339;48.748;2.222;2022-07-29T05:26:56;7.25;;;2.80;;
29344;SDS011;16339;48.748;2.222;2022-07-29T05:31:54;4.60;;;2.72;;
29344;SDS011;16339;48.748;2.222;2022-07-29T05:34:22;4.20;;;2.67;;
29344;SDS011;16339;48.748;2.222;2022-07-29T05:36:51;7.00;;;2.92;;
29344;SDS011;16339;48.748;2.222;2022-07-29T05:39:20;9.73;;;3.00;;
29344;SDS011;16339;48.748;2.222;2022-07-29T05:41:50;8.18;;;2.78;;
29344;SDS011;16339;48.748;2.222;2022-07-29T05:44:21;8.68;;;3.50;;
29344;SDS011;16339;48.748;2.222;2022-07-29T05:49:18;6.20;;;2.97;;
29344;SDS011;16339;48.748;2.222;2022-07-29T05:51:47;6.70;;;2.90;;
29344;SDS011;16339;48.748;2.222;2022-07-29T05:54:15;11.95;;;3.20;;
29344;SDS011;16339;48.748;2.222;2022-07-29T05:56:44;7.35;;;3.08;;
29344;SDS011;16339;48.748;2.222;2022-07-29T05:59:13;4.03;;;2.67;;
29344;SDS011;16339;48.748;2.222;2022-07-29T06:01:44;5.28;;;3.05;;
29344;SDS011;16339;48.748;2.222;2022-07-29T06:04:13;12.38;;;3.33;;
29344;SDS011;16339;48.748;2.222;2022-07-29T06:06:42;8.15;;;3.45;;
29344;SDS011;16339;48.748;2.222;2022-07-29T06:09:11;13.27;;;3.20;;
29344;SDS011;16339;48.748;2.222;2022-07-29T06:11:40;8.82;;;3.05;;
29344;SDS011;16339;48.748;2.222;2022-07-29T06:14:08;8.57;;;4.85;;
29344;SDS011;16339;48.748;2.222;2022-07-29T06:16:37;12.93;;;5.22;;
29344;SDS011;16339;48.748;2.222;2022-07-29T06:19:09;12.68;;;4.13;;
29344;SDS011;16339;48.748;2.222;2022-07-29T06:24:10;7.95;;;3.35;;
29344;SDS011;16339;48.748;2.222;2022-07-29T06:26:38;8.98;;;2.60;;
29344;SDS011;16339;48.748;2.222;2022-07-29T06:29:07;18.23;;;3.83;;
29344;SDS011;16339;48.748;2.222;2022-07-29T06:31:38;8.40;;;5.00;;
29344;SDS011;16339;48.748;2.222;2022-07-29T06:34:09;7.78;;;3.22;;
29344;SDS011;16339;48.748;2.222;2022-07-29T06:36:38;8.00;;;2.83;;
29344;SDS011;16339;48.748;2.222;2022-07-29T06:39:07;20.25;;;3.53;;
29344;SDS011;16339;48.748;2.222;2022-07-29T06:41:36;15.38;;;3.80;;
29344;SDS011;16339;48.748;2.222;2022-07-29T06:44:04;14.18;;;3.20;;
29344;SDS011;16339;48.748;2.222;2022-07-29T06:46:33;8.98;;;3.33;;
29344;SDS011;16339;48.748;2.222;2022-07-29T06:49:03;19.63;;;3.85;;
29344;SDS011;16339;48.748;2.222;2022-07-29T06:51:34;15.93;;;3.22;;
29344;SDS011;16339;48.748;2.222;2022-07-29T06:54:03;12.40;;;2.92;;
29344;SDS011;16339;48.748;2.222;2022-07-29T06:56:34;10.02;;;3.03;;
29344;SDS011;16339;48.748;2.222;2022-07-29T06:59:03;14.32;;;3.30;;
29344;SDS011;16339;48.748;2.222;2022-07-29T07:01:32;14.38;;;3.40;;
29344;SDS011;16339;48.748;2.222;2022-07-29T07:04:01;12.45;;;3.20;;
29344;SDS011;16339;48.748;2.222;2022-07-29T07:06:30;16.70;;;3.05;;
29344;SDS011;16339;48.748;2.222;2022-07-29T07:09:01;15.93;;;3.58;;
29344;SDS011;16339;48.748;2.222;2022-07-29T07:11:30;12.45;;;3.15;;
29344;SDS011;16339;48.748;2.222;2022-07-29T07:13:59;7.05;;;2.78;;
29344;SDS011;16339;48.748;2.222;2022-07-29T07:16:27;17.15;;;3.53;;
29344;SDS011;16339;48.748;2.222;2022-07-29T07:18:56;13.38;;;3.10;;
29344;SDS011;16339;48.748;2.222;2022-07-29T07:21:25;7.55;;;3.20;;
29344;SDS011;16339;48.748;2.222;2022-07-29T07:23:53;11.65;;;3.50;;
29344;SDS011;16339;48.748;2.222;2022-07-29T07:26:25;14.18;;;3.50;;
29344;SDS011;16339;48.748;2.222;2022-07-29T07:28:54;8.35;;;2.55;;
29344;SDS011;16339;48.748;2.222;2022-07-29T07:31:23;13.52;;;2.80;;
29344;SDS011;16339;48.748;2.222;2022-07-29T07:33:51;9.77;;;2.70;;
29344;SDS011;16339;48.748;2.222;2022-07-29T07:36:21;8.07;;;2.70;;
29344;SDS011;16339;48.748;2.222;2022-07-29T07:38:52;10.48;;;2.60;;
29344;SDS011;16339;48.748;2.222;2022-07-29T07:41:20;7.75;;;3.05;;
29344;SDS011;16339;48.748;2.222;2022-07-29T07:43:55;16.10;;;3.00;;
29344;SDS011;16339;48.748;2.222;2022-07-29T07:46:24;9.85;;;2.80;;
29344;SDS011;16339;48.748;2.222;2022-07-29T07:48:54;11.80;;;2.22;;
29344;SDS011;16339;48.748;2.222;2022-07-29T07:51:23;10.20;;;3.03;;
29344;SDS011;16339;48.748;2.222;2022-07-29T07:53:52;6.13;;;2.60;;
29344;SDS011;16339;48.748;2.222;2022-07-29T07:56:20;16.05;;;2.63;;
29344;SDS011;16339;48.748;2.222;2022-07-29T07:58:49;6.40;;;2.70;;
29344;SDS011;16339;48.748;2.222;2022-07-29T08:01:20;9.02;;;2.45;;
29344;SDS011;16339;48.748;2.222;2022-07-29T08:06:21;15.05;;;2.33;;
29344;SDS011;16339;48.748;2.222;2022-07-29T08:08:50;11.80;;;2.75;;
29344;SDS011;16339;48.748;2.222;2022-07-29T08:11:19;10.50;;;2.47;;
29344;SDS011;16339;48.748;2.222;2022-07-29T08:13:48;7.32;;;2.25;;
29344;SDS011;16339;48.748;2.222;2022-07-29T08:16:17;8.13;;;2.25;;
29344;SDS011;16339;48.748;2.222;2022-07-29T08:18:48;6.95;;;2.10;;
29344;SDS011;16339;48.748;2.222;2022-07-29T08:21:22;5.55;;;2.10;;
29344;SDS011;16339;48.748;2.222;2022-07-29T08:23:51;7.63;;;1.90;;
29344;SDS011;16339;48.748;2.222;2022-07-29T08:26:40;6.32;;;1.92;;
29344;SDS011;16339;48.748;2.222;2022-07-29T08:29:09;9.43;;;1.80;;
29344;SDS011;16339;48.748;2.222;2022-07-29T08:31:38;7.78;;;1.90;;
29344;SDS011;16339;48.748;2.222;2022-07-29T08:34:10;6.65;;;2.25;;
29344;SDS011;16339;48.748;2.222;2022-07-29T08:36:39;7.00;;;1.70;;
29344;SDS011;16339;48.748;2.222;2022-07-29T08:39:08;4.30;;;1.77;;
29344;SDS011;16339;48.748;2.222;2022-07-29T08:41:37;3.90;;;1.63;;
29344;SDS011;16339;48.748;2.222;2022-07-29T08:44:05;4.95;;;1.75;;
29344;SDS011;16339;48.748;2.222;2022-07-29T08:46:37;5.88;;;1.88;;
29344;SDS011;16339;48.748;2.222;2022-07-29T08:49:06;5.53;;;1.50;;
29344;SDS011;16339;48.748;2.222;2022-07-29T08:51:38;7.80;;;1.70;;
29344;SDS011;16339;48.748;2.222;2022-07-29T08:54:08;5.55;;;1.60;;
29344;SDS011;16339;48.748;2.222;2022-07-29T08:56:37;5.03;;;1.65;;
29344;SDS011;16339;48.748;2.222;2022-07-29T08:59:07;6.50;;;2.03;;
29344;SDS011;16339;48.748;2.222;2022-07-29T09:01:37;14.50;;;1.90;;
29344;SDS011;16339;48.748;2.222;2022-07-29T09:04:10;2.25;;;1.40;;
29344;SDS011;16339;48.748;2.222;2022-07-29T09:06:44;6.32;;;1.67;;
29344;SDS011;16339;48.748;2.222;2022-07-29T09:09:15;3.33;;;1.60;;
29344;SDS011;16339;48.748;2.222;2022-07-29T09:11:44;2.53;;;1.30;;
29344;SDS011;16339;48.748;2.222;2022-07-29T09:14:13;3.13;;;1.50;;
29344;SDS011;16339;48.748;2.222;2022-07-29T09:16:52;4.97;;;1.75;;
29344;SDS011;16339;48.748;2.222;2022-07-29T09:19:27;6.00;;;1.60;;
29344;SDS011;16339;48.748;2.222;2022-07-29T09:22:00;3.28;;;1.50;;
29344;SDS011;16339;48.748;2.222;2022-07-29T09:24:37;6.60;;;1.63;;
29344;SDS011;16339;48.748;2.222;2022-07-29T09:27:09;7.47;;;1.77;;
29344;SDS011;16339;48.748;2.222;2022-07-29T09:32:09;5.10;;;2.00;;
29344;SDS011;16339;48.748;2.222;2022-07-29T09:34:38;5.70;;;1.98;;
29344;SDS011;16339;48.748;2.222;2022-07-29T09:37:09;8.80;;;2.05;;
29344;SDS011;16339;48.748;2.222;2022-07-29T09:39:42;8.57;;;1.80;;
29344;SDS011;16339;48.748;2.222;2022-07-29T09:42:12;3.53;;;1.70;;
29344;SDS011;16339;48.748;2.222;2022-07-29T09:44:41;5.22;;;1.65;;
29344;SDS011;16339;48.748;2.222;2022-07-29T09:47:13;10.35;;;2.00;;
29344;SDS011;16339;48.748;2.222;2022-07-29T09:49:53;4.82;;;1.98;;
29344;SDS011;16339;48.748;2.222;2022-07-29T09:52:27;5.35;;;1.80;;
29344;SDS011;16339;48.748;2.222;2022-07-29T09:55:03;9.93;;;2.42;;
29344;SDS011;16339;48.748;2.222;2022-07-29T09:57:33;7.00;;;1.73;;
29344;SDS011;16339;48.748;2.222;2022-07-29T10:00:03;9.70;;;1.80;;
29344;SDS011;16339;48.748;2.222;2022-07-29T10:02:35;9.25;;;2.13;;
29344;SDS011;16339;48.748;2.222;2022-07-29T10:05:05;7.40;;;1.75;;
29344;SDS011;16339;48.748;2.222;2022-07-29T10:07:46;7.53;;;1.80;;
29344;SDS011;16339;48.748;2.222;2022-07-29T10:10:20;6.05;;;1.75;;
29344;SDS011;16339;48.748;2.222;2022-07-29T10:12:54;2.65;;;1.40;;
29344;SDS011;16339;48.748;2.222;2022-07-29T10:15:25;2.22;;;1.63;;
29344;SDS011;16339;48.748;2.222;2022-07-29T10:17:55;5.40;;;1.70;;
29344;SDS011;16339;48.748;2.222;2022-07-29T10:20:24;3.88;;;1.50;;
29344;SDS011;16339;48.748;2.222;2022-07-29T10:22:57;4.10;;;1.20;;
29344;SDS011;16339;48.748;2.222;2022-07-29T10:27:54;2.22;;;1.45;;
29344;SDS011;16339;48.748;2.222;2022-07-29T10:30:24;5.28;;;1.45;;
29344;SDS011;16339;48.748;2.222;2022-07-29T10:33:00;7.38;;;1.60;;
29344;SDS011;16339;48.748;2.222;2022-07-29T10:35:43;4.28;;;1.40;;
29344;SDS011;16339;48.748;2.222;2022-07-29T10:44:19;12.45;;;1.85;;
29344;SDS011;16339;48.748;2.222;2022-07-29T10:46:50;5.40;;;1.40;;
29344;SDS011;16339;48.748;2.222;2022-07-29T10:49:21;7.05;;;1.60;;
29344;SDS011;16339;48.748;2.222;2022-07-29T10:52:01;7.50;;;1.88;;
29344;SDS011;16339;48.748;2.222;2022-07-29T10:54:44;4.85;;;1.98;;
29344;SDS011;16339;48.748;2.222;2022-07-29T10:57:23;2.42;;;1.63;;
29344;SDS011;16339;48.748;2.222;2022-07-29T11:02:52;5.20;;;1.70;;
29344;SDS011;16339;48.748;2.222;2022-07-29T11:05:23;8.25;;;1.70;;
29344;SDS011;16339;48.748;2.222;2022-07-29T11:10:49;7.28;;;1.40;;
29344;SDS011;16339;48.748;2.222;2022-07-29T11:16:20;11.55;;;1.40;;
29344;SDS011;16339;48.748;2.222;2022-07-29T11:21:49;6.20;;;1.58;;
29344;SDS011;16339;48.748;2.222;2022-07-29T11:24:19;5.97;;;1.23;;
29344;SDS011;16339;48.748;2.222;2022-07-29T11:27:13;7.35;;;2.25;;
29344;SDS011;16339;48.748;2.222;2022-07-29T11:29:48;5.25;;;1.50;;
29344;SDS011;16339;48.748;2.222;2022-07-29T11:32:19;6.43;;;1.60;;
29344;SDS011;16339;48.748;2.222;2022-07-29T11:35:10;7.40;;;1.75;;
29344;SDS011;16339;48.748;2.222;2022-07-29T11:37:42;4.75;;;1.52;;
29344;SDS011;16339;48.748;2.222;2022-07-29T11:40:12;4.10;;;1.30;;
29344;SDS011;16339;48.748;2.222;2022-07-29T11:42:49;4.68;;;1.55;;
29344;SDS011;16339;48.748;2.222;2022-07-29T11:45:19;7.60;;;1.50;;
29344;SDS011;16339;48.748;2.222;2022-07-29T11:47:55;4.28;;;1.60;;
29344;SDS011;16339;48.748;2.222;2022-07-29T11:50:35;4.85;;;1.52;;
29344;SDS011;16339;48.748;2.222;2022-07-29T11:53:09;3.55;;;1.40;;
29344;SDS011;16339;48.748;2.222;2022-07-29T11:55:40;6.38;;;1.73;;
29344;SDS011;16339;48.748;2.222;2022-07-29T11:58:12;9.32;;;1.65;;
29344;SDS011;16339;48.748;2.222;2022-07-29T12:00:40;5.22;;;1.35;;
29344;SDS011;16339;48.748;2.222;2022-07-29T12:03:11;4.57;;;1.45;;
29344;SDS011;16339;48.748;2.222;2022-07-29T12:05:40;3.33;;;1.50;;
29344;SDS011;16339;48.748;2.222;2022-07-29T12:08:11;3.75;;;1.55;;
29344;SDS011;16339;48.748;2.222;2022-07-29T12:10:44;6.18;;;1.83;;
29344;SDS011;16339;48.748;2.222;2022-07-29T12:13:17;3.33;;;1.30;;
29344;SDS011;16339;48.748;2.222;2022-07-29T12:15:52;2.67;;;1.40;;
29344;SDS011;16339;48.748;2.222;2022-07-29T12:18:23;9.70;;;1.67;;
29344;SDS011;16339;48.748;2.222;2022-07-29T12:20:56;5.68;;;1.55;;
29344;SDS011;16339;48.748;2.222;2022-07-29T12:23:28;5.47;;;1.95;;
29344;SDS011;16339;48.748;2.222;2022-07-29T12:25:58;7.18;;;1.40;;
29344;SDS011;16339;48.748;2.222;2022-07-29T12:28:29;4.30;;;1.73;;
29344;SDS011;16339;48.748;2.222;2022-07-29T12:31:04;4.93;;;1.33;;
29344;SDS011;16339;48.748;2.222;2022-07-29T12:33:33;7.53;;;1.63;;
29344;SDS011;16339;48.748;2.222;2022-07-29T12:36:02;5.57;;;1.80;;
29344;SDS011;16339;48.748;2.222;2022-07-29T12:38:31;10.95;;;1.45;;
29344;SDS011;16339;48.748;2.222;2022-07-29T12:41:02;4.47;;;1.50;;
29344;SDS011;16339;48.748;2.222;2022-07-29T12:43:34;4.05;;;1.38;;
29344;SDS011;16339;48.748;2.222;2022-07-29T12:46:11;3.08;;;1.40;;
29344;SDS011;16339;48.748;2.222;2022-07-29T12:48:41;4.00;;;1.55;;
29344;SDS011;16339;48.748;2.222;2022-07-29T12:51:11;7.78;;;1.52;;
29344;SDS011;16339;48.748;2.222;2022-07-29T12:54:00;3.30;;;1.50;;
29344;SDS011;16339;48.748;2.222;2022-07-29T12:56:36;4.72;;;1.77;;
29344;SDS011;16339;48.748;2.222;2022-07-29T12:59:12;7.28;;;1.45;;
29344;SDS011;16339;48.748;2.222;2022-07-29T13:01:42;5.55;;;1.70;;
29344;SDS011;16339;48.748;2.222;2022-07-29T13:04:23;2.43;;;1.37;;
29344;SDS011;16339;48.748;2.222;2022-07-29T13:06:59;4.47;;;1.50;;
29344;SDS011;16339;48.748;2.222;2022-07-29T13:09:40;3.20;;;1.50;;
29344;SDS011;16339;48.748;2.222;2022-07-29T13:12:10;4.30;;;1.50;;
29344;SDS011;16339;48.748;2.222;2022-07-29T13:14:41;7.22;;;1.58;;
29344;SDS011;16339;48.748;2.222;2022-07-29T13:17:12;6.45;;;1.30;;
29344;SDS011;16339;48.748;2.222;2022-07-29T13:19:44;2.47;;;1.60;;
29344;SDS011;16339;48.748;2.222;2022-07-29T13:22:14;5.55;;;1.80;;
29344;SDS011;16339;48.748;2.222;2022-07-29T13:24:50;4.15;;;1.58;;
29344;SDS011;16339;48.748;2.222;2022-07-29T13:27:21;4.15;;;1.45;;
29344;SDS011;16339;48.748;2.222;2022-07-29T13:29:50;4.88;;;1.30;;
29344;SDS011;16339;48.748;2.222;2022-07-29T13:32:21;7.78;;;1.73;;
29344;SDS011;16339;48.748;2.222;2022-07-29T13:34:50;6.93;;;1.95;;
29344;SDS011;16339;48.748;2.222;2022-07-29T13:37:19;6.63;;;1.50;;
29344;SDS011;16339;48.748;2.222;2022-07-29T13:39:50;2.70;;;1.48;;
29344;SDS011;16339;48.748;2.222;2022-07-29T13:42:21;2.63;;;1.50;;
29344;SDS011;16339;48.748;2.222;2022-07-29T13:44:50;2.72;;;1.55;;
29344;SDS011;16339;48.748;2.222;2022-07-29T13:47:18;6.68;;;1.40;;
29344;SDS011;16339;48.748;2.222;2022-07-29T13:49:48;3.08;;;2.00;;
29344;SDS011;16339;48.748;2.222;2022-07-29T13:52:18;2.63;;;1.80;;
29344;SDS011;16339;48.748;2.222;2022-07-29T13:54:47;3.05;;;1.70;;
29344;SDS011;16339;48.748;2.222;2022-07-29T13:57:18;6.40;;;1.63;;
29344;SDS011;16339;48.748;2.222;2022-07-29T13:59:47;4.88;;;1.83;;
29344;SDS011;16339;48.748;2.222;2022-07-29T14:02:16;4.28;;;1.38;;
29344;SDS011;16339;48.748;2.222;2022-07-29T14:04:46;8.77;;;1.70;;
29344;SDS011;16339;48.748;2.222;2022-07-29T14:07:15;4.65;;;1.60;;
29344;SDS011;16339;48.748;2.222;2022-07-29T14:09:44;1.48;;;1.38;;
29344;SDS011;16339;48.748;2.222;2022-07-29T14:12:12;12.77;;;1.92;;
29344;SDS011;16339;48.748;2.222;2022-07-29T14:14:44;2.47;;;1.23;;
29344;SDS011;16339;48.748;2.222;2022-07-29T14:17:12;3.22;;;1.45;;
29344;SDS011;16339;48.748;2.222;2022-07-29T14:19:42;8.55;;;1.90;;
29344;SDS011;16339;48.748;2.222;2022-07-29T14:22:10;6.38;;;1.20;;
29344;SDS011;16339;48.748;2.222;2022-07-29T14:24:39;3.60;;;1.63;;
29344;SDS011;16339;48.748;2.222;2022-07-29T14:27:08;3.47;;;1.40;;
29344;SDS011;16339;48.748;2.222;2022-07-29T14:29:36;4.55;;;1.17;;
29344;SDS011;16339;48.748;2.222;2022-07-29T14:32:08;2.38;;;1.20;;
29344;SDS011;16339;48.748;2.222;2022-07-29T14:34:39;2.20;;;1.42;;
29344;SDS011;16339;48.748;2.222;2022-07-29T14:37:09;5.03;;;1.50;;
29344;SDS011;16339;48.748;2.222;2022-07-29T14:39:37;1.67;;;1.48;;
29344;SDS011;16339;48.748;2.222;2022-07-29T14:42:06;2.58;;;1.38;;
29344;SDS011;16339;48.748;2.222;2022-07-29T14:44:35;1.58;;;1.30;;
29344;SDS011;16339;48.748;2.222;2022-07-29T14:47:04;7.43;;;1.40;;
29344;SDS011;16339;48.748;2.222;2022-07-29T14:49:36;4.22;;;1.52;;
29344;SDS011;16339;48.748;2.222;2022-07-29T14:52:05;5.18;;;1.50;;
29344;SDS011;16339;48.748;2.222;2022-07-29T14:54:34;2.42;;;1.30;;
29344;SDS011;16339;48.748;2.222;2022-07-29T14:57:03;4.80;;;1.67;;
29344;SDS011;16339;48.748;2.222;2022-07-29T14:59:32;3.60;;;1.40;;
29344;SDS011;16339;48.748;2.222;2022-07-29T15:02:00;3.65;;;1.50;;
29344;SDS011;16339;48.748;2.222;2022-07-29T15:04:29;3.38;;;1.45;;
29344;SDS011;16339;48.748;2.222;2022-07-29T15:07:01;8.82;;;1.75;;
29344;SDS011;16339;48.748;2.222;2022-07-29T15:09:29;3.60;;;1.45;;
29344;SDS011;16339;48.748;2.222;2022-07-29T15:11:58;5.22;;;1.58;;
29344;SDS011;16339;48.748;2.222;2022-07-29T15:14:28;5.00;;;1.30;;
29344;SDS011;16339;48.748;2.222;2022-07-29T15:16:56;2.75;;;1.20;;
29344;SDS011;16339;48.748;2.222;2022-07-29T15:19:25;3.30;;;1.33;;
29344;SDS011;16339;48.748;2.222;2022-07-29T15:21:54;3.90;;;1.80;;
29344;SDS011;16339;48.748;2.222;2022-07-29T15:24:25;6.80;;;1.52;;
29344;SDS011;16339;48.748;2.222;2022-07-29T15:26:54;4.85;;;1.40;;
29344;SDS011;16339;48.748;2.222;2022-07-29T15:29:23;4.72;;;1.40;;
29344;SDS011;16339;48.748;2.222;2022-07-29T15:31:52;4.85;;;1.60;;
29344;SDS011;16339;48.748;2.222;2022-07-29T15:34:20;1.98;;;1.40;;
29344;SDS011;16339;48.748;2.222;2022-07-29T15:36:49;4.82;;;1.17;;
29344;SDS011;16339;48.748;2.222;2022-07-29T15:39:18;5.68;;;1.40;;
29344;SDS011;16339;48.748;2.222;2022-07-29T15:41:54;5.78;;;1.40;;
29344;SDS011;16339;48.748;2.222;2022-07-29T15:44:24;3.83;;;1.55;;
29344;SDS011;16339;48.748;2.222;2022-07-29T15:46:52;5.22;;;1.38;;
29344;SDS011;16339;48.748;2.222;2022-07-29T15:49:28;6.03;;;1.45;;
29344;SDS011;16339;48.748;2.222;2022-07-29T15:52:02;6.55;;;1.45;;
29344;SDS011;16339;48.748;2.222;2022-07-29T15:54:34;6.45;;;1.35;;
29344;SDS011;16339;48.748;2.222;2022-07-29T15:57:10;3.45;;;1.50;;